createdAt,value
2022-11-13T00:00:56.919Z,2.76
2022-11-13T00:01:56.925Z,2.76
2022-11-13T00:02:56.994Z,2.78
2022-11-13T00:03:56.965Z,2.79
2022-11-13T00:04:56.974Z,2.79
2022-11-13T00:05:56.987Z,2.79
2022-11-13T00:06:59.294Z,2.79
2022-11-13T00:07:56.984Z,2.79
2022-11-13T00:08:57.016Z,2.76
2022-11-13T00:09:57.022Z,2.77
2022-11-13T00:10:57.015Z,2.77
2022-11-13T00:11:56.988Z,2.77
2022-11-13T00:12:56.994Z,2.75
2022-11-13T00:13:56.982Z,2.73
2022-11-13T00:14:57.003Z,2.72
2022-11-13T00:15:56.976Z,2.72
2022-11-13T00:16:57.007Z,2.71
2022-11-13T00:17:57.003Z,2.69
2022-11-13T00:18:57.023Z,2.66
2022-11-13T00:19:56.984Z,2.66
2022-11-13T00:20:56.991Z,2.65
2022-11-13T00:21:57.004Z,2.64
2022-11-13T00:22:57.007Z,2.61
2022-11-13T00:23:56.995Z,2.60
2022-11-13T00:24:57.013Z,2.60
2022-11-13T00:25:57.050Z,2.58
2022-11-13T00:26:56.999Z,2.58
2022-11-13T00:27:57.008Z,2.57
2022-11-13T00:28:57.005Z,2.56
2022-11-13T00:29:57.039Z,2.55
2022-11-13T00:30:57.030Z,2.53
2022-11-13T00:31:57.025Z,2.52
2022-11-13T00:32:57.052Z,2.46
2022-11-13T00:34:19.689Z,2.39
2022-11-13T00:34:57.030Z,2.32
2022-11-13T00:35:57.050Z,2.25
2022-11-13T00:36:57.036Z,2.18
2022-11-13T00:37:57.027Z,2.10
2022-11-13T00:38:57.047Z,2.05
2022-11-13T00:39:59.629Z,2.05
2022-11-13T00:40:57.076Z,2.06
2022-11-13T00:41:57.060Z,2.06
2022-11-13T00:42:57.054Z,2.07
2022-11-13T00:43:57.055Z,2.07
2022-11-13T00:44:57.067Z,2.07
2022-11-13T00:45:57.056Z,2.06
2022-11-13T00:46:57.053Z,2.04
2022-11-13T00:47:57.060Z,2.00
2022-11-13T00:48:57.066Z,1.98
2022-11-13T00:49:57.072Z,1.94
2022-11-13T00:50:57.049Z,1.90
2022-11-13T00:51:57.057Z,1.87
2022-11-13T00:52:57.058Z,1.87
2022-11-13T00:53:57.062Z,1.87
2022-11-13T00:54:57.044Z,1.87
2022-11-13T00:55:57.056Z,1.88
2022-11-13T00:56:57.074Z,1.90
2022-11-13T00:57:57.081Z,1.92
2022-11-13T00:58:57.072Z,1.96
2022-11-13T00:59:57.058Z,1.98
2022-11-13T01:00:57.049Z,2.01
2022-11-13T01:01:57.101Z,2.03
2022-11-13T01:02:57.048Z,2.06
2022-11-13T01:03:57.048Z,2.06
2022-11-13T01:04:57.107Z,2.06
2022-11-13T01:05:57.057Z,2.04
2022-11-13T01:06:57.121Z,2.03
2022-11-13T01:07:57.081Z,2.02
2022-11-13T01:08:57.051Z,2.02
2022-11-13T01:09:57.092Z,2.00
2022-11-13T01:10:57.059Z,1.95
2022-11-13T01:11:57.065Z,1.90
2022-11-13T01:12:57.084Z,1.80
2022-11-13T01:13:57.086Z,1.75
2022-11-13T01:14:57.069Z,1.73
2022-11-13T01:15:57.095Z,1.69
2022-11-13T01:16:57.063Z,1.68
2022-11-13T01:17:57.072Z,1.69
2022-11-13T01:18:57.088Z,1.69
2022-11-13T01:19:57.075Z,1.71
2022-11-13T01:20:57.076Z,1.72
2022-11-13T01:22:19.479Z,1.73
2022-11-13T01:23:19.487Z,1.73
2022-11-13T01:24:19.499Z,1.72
2022-11-13T01:25:19.497Z,1.70
2022-11-13T01:26:19.507Z,1.69
2022-11-13T01:27:19.507Z,1.67
2022-11-13T01:28:19.515Z,1.66
2022-11-13T01:29:19.494Z,1.65
2022-11-13T01:30:19.517Z,1.63
2022-11-13T01:31:19.539Z,1.60
2022-11-13T01:32:19.503Z,1.59
2022-11-13T01:33:19.511Z,1.59
2022-11-13T01:34:19.501Z,1.59
2022-11-13T01:35:19.515Z,1.56
2022-11-13T01:36:19.541Z,1.56
2022-11-13T01:37:19.546Z,1.54
2022-11-13T01:38:19.524Z,1.54
2022-11-13T01:39:19.521Z,1.54
2022-11-13T01:40:19.530Z,1.51
2022-11-13T01:41:23.429Z,1.49
2022-11-13T01:42:19.545Z,1.45
2022-11-13T01:43:19.537Z,1.44
2022-11-13T01:44:19.538Z,1.44
2022-11-13T01:45:19.515Z,1.42
2022-11-13T01:46:19.527Z,1.41
2022-11-13T01:47:19.536Z,1.41
2022-11-13T01:48:19.552Z,1.40
2022-11-13T01:49:19.534Z,1.39
2022-11-13T01:50:19.537Z,1.39
2022-11-13T01:51:19.513Z,1.38
2022-11-13T01:52:19.541Z,1.37
2022-11-13T01:53:19.553Z,1.33
2022-11-13T01:54:19.557Z,1.30
2022-11-13T01:55:19.526Z,1.26
2022-11-13T01:56:19.541Z,1.23
2022-11-13T01:57:19.551Z,1.20
2022-11-13T01:58:19.678Z,1.17
2022-11-13T01:59:19.689Z,1.14
2022-11-13T02:00:19.717Z,1.11
2022-11-13T02:01:19.728Z,1.07
2022-11-13T02:02:19.721Z,1.04
2022-11-13T02:03:19.767Z,1.01
2022-11-13T02:04:19.747Z,0.99
2022-11-13T02:05:19.763Z,0.99
2022-11-13T02:06:19.769Z,0.98
2022-11-13T02:07:19.826Z,0.98
2022-11-13T02:08:19.798Z,0.99
2022-11-13T02:09:19.806Z,0.96
2022-11-13T02:10:19.834Z,0.92
2022-11-13T02:11:19.830Z,0.88
2022-11-13T02:12:19.824Z,0.87
2022-11-13T02:13:19.864Z,0.86
2022-11-13T02:14:19.891Z,0.85
2022-11-13T02:15:19.897Z,0.85
2022-11-13T02:16:19.898Z,0.85
2022-11-13T02:17:19.917Z,0.84
2022-11-13T02:18:19.921Z,0.85
2022-11-13T02:19:19.925Z,0.84
2022-11-13T02:20:19.968Z,0.84
2022-11-13T02:21:19.958Z,0.83
2022-11-13T02:22:19.968Z,0.80
2022-11-13T02:23:20.001Z,0.80
2022-11-13T02:24:19.989Z,0.77
2022-11-13T02:25:20.033Z,0.77
2022-11-13T02:26:20.031Z,0.75
2022-11-13T02:27:20.004Z,0.73
2022-11-13T02:28:20.036Z,0.72
2022-11-13T02:29:20.052Z,0.70
2022-11-13T02:30:25.319Z,0.70
2022-11-13T02:31:20.053Z,0.70
2022-11-13T02:32:20.072Z,0.70
2022-11-13T02:33:20.065Z,0.70
2022-11-13T02:34:20.072Z,0.70
2022-11-13T02:35:20.087Z,0.70
2022-11-13T02:36:20.062Z,0.68
2022-11-13T02:37:20.071Z,0.67
2022-11-13T02:38:20.069Z,0.65
2022-11-13T02:39:20.077Z,0.65
2022-11-13T02:40:20.077Z,0.63
2022-11-13T02:41:20.061Z,0.61
2022-11-13T02:42:20.071Z,0.59
2022-11-13T02:43:20.071Z,0.58
2022-11-13T02:44:20.052Z,0.58
2022-11-13T02:45:20.072Z,0.58
2022-11-13T02:46:20.097Z,0.58
2022-11-13T02:47:20.079Z,0.57
2022-11-13T02:48:20.084Z,0.56
2022-11-13T02:49:20.068Z,0.55
2022-11-13T02:50:20.073Z,0.54
2022-11-13T02:51:20.099Z,0.53
2022-11-13T02:52:20.170Z,0.53
2022-11-13T02:53:20.074Z,0.53
2022-11-13T02:54:20.080Z,0.53
2022-11-13T02:55:20.071Z,0.52
2022-11-13T02:56:20.103Z,0.52
2022-11-13T02:57:20.083Z,0.51
2022-11-13T02:58:20.078Z,0.50
2022-11-13T02:59:20.069Z,0.48
2022-11-13T03:00:20.082Z,0.47
2022-11-13T03:01:20.142Z,0.45
2022-11-13T03:02:20.102Z,0.43
2022-11-13T03:03:41.150Z,0.42
2022-11-13T03:04:20.082Z,0.39
2022-11-13T03:05:20.112Z,0.37
2022-11-13T03:06:20.099Z,0.34
2022-11-13T03:07:20.161Z,0.33
2022-11-13T03:08:20.119Z,0.33
2022-11-13T03:09:20.085Z,0.33
2022-11-13T03:10:20.093Z,0.32
2022-11-13T03:11:20.091Z,0.31
2022-11-13T03:12:20.109Z,0.30
2022-11-13T03:13:20.103Z,0.28
2022-11-13T03:14:20.100Z,0.28
2022-11-13T03:15:20.086Z,0.26
2022-11-13T03:16:20.100Z,0.25
2022-11-13T03:17:20.104Z,0.23
2022-11-13T03:18:20.136Z,0.23
2022-11-13T03:19:20.120Z,0.23
2022-11-13T03:20:20.093Z,0.25
2022-11-13T03:21:20.103Z,0.25
2022-11-13T03:22:20.111Z,0.25
2022-11-13T03:23:20.118Z,0.25
2022-11-13T03:24:20.114Z,0.23
2022-11-13T03:25:20.109Z,0.23
2022-11-13T03:26:20.121Z,0.22
2022-11-13T03:27:20.111Z,0.22
2022-11-13T03:28:20.104Z,0.21
2022-11-13T03:29:20.126Z,0.20
2022-11-13T03:30:20.122Z,0.19
2022-11-13T03:31:20.104Z,0.17
2022-11-13T03:32:20.115Z,0.16
2022-11-13T03:33:20.119Z,0.13
2022-11-13T03:34:20.130Z,0.12
2022-11-13T03:35:20.130Z,0.11
2022-11-13T03:36:20.112Z,0.10
2022-11-13T03:37:20.110Z,0.09
2022-11-13T03:38:20.117Z,0.06
2022-11-13T03:39:20.128Z,0.06
2022-11-13T03:40:20.150Z,0.04
2022-11-13T03:41:20.175Z,0.02
2022-11-13T03:42:20.163Z,0.01
2022-11-13T03:43:20.173Z,0.02
2022-11-13T03:44:20.196Z,0.01
2022-11-13T03:45:20.197Z,0.02
2022-11-13T03:46:20.238Z,0.01
2022-11-13T03:47:20.232Z,0.00
2022-11-13T03:48:20.251Z,0.02
2022-11-13T03:49:20.237Z,0.00
2022-11-13T03:50:20.275Z,-0.01
2022-11-13T03:51:20.293Z,-0.02
2022-11-13T03:52:20.279Z,-0.03
2022-11-13T03:53:20.298Z,-0.04
2022-11-13T03:54:20.327Z,-0.03
2022-11-13T03:55:20.326Z,-0.02
2022-11-13T03:56:20.340Z,-0.02
2022-11-13T03:57:20.349Z,-0.02
2022-11-13T03:58:20.360Z,-0.02
2022-11-13T03:59:20.355Z,-0.02
2022-11-13T04:00:20.380Z,-0.03
2022-11-13T04:01:20.498Z,-0.01
2022-11-13T04:02:20.420Z,-0.03
2022-11-13T04:03:20.420Z,-0.02
2022-11-13T04:04:20.441Z,-0.03
2022-11-13T04:05:22.828Z,-0.04
2022-11-13T04:06:20.570Z,-0.06
2022-11-13T04:07:20.660Z,-0.08
2022-11-13T04:08:20.599Z,-0.11
2022-11-13T04:09:20.614Z,-0.13
2022-11-13T04:10:20.619Z,-0.13
2022-11-13T04:11:20.600Z,-0.15
2022-11-13T04:12:20.684Z,-0.16
2022-11-13T04:13:20.645Z,-0.16
2022-11-13T04:14:20.656Z,-0.17
2022-11-13T04:15:20.678Z,-0.19
2022-11-13T04:16:20.688Z,-0.20
2022-11-13T04:17:20.693Z,-0.22
2022-11-13T04:18:20.710Z,-0.25
2022-11-13T04:19:20.708Z,-0.24
2022-11-13T04:20:20.738Z,-0.26
2022-11-13T04:21:20.735Z,-0.27
2022-11-13T04:22:20.777Z,-0.27
2022-11-13T04:23:20.771Z,-0.28
2022-11-13T04:24:20.783Z,-0.28
2022-11-13T04:25:20.788Z,-0.30
2022-11-13T04:26:20.787Z,-0.31
2022-11-13T04:27:20.819Z,-0.32
2022-11-13T04:28:20.817Z,-0.32
2022-11-13T04:29:20.855Z,-0.34
2022-11-13T04:30:20.832Z,-0.34
2022-11-13T04:31:20.863Z,-0.34
2022-11-13T04:32:20.885Z,-0.34
2022-11-13T04:33:20.890Z,-0.33
2022-11-13T04:34:20.887Z,-0.34
2022-11-13T04:35:20.880Z,-0.34
2022-11-13T04:36:20.918Z,-0.35
2022-11-13T04:37:20.927Z,-0.35
2022-11-13T04:38:20.956Z,-0.34
2022-11-13T04:39:20.948Z,-0.33
2022-11-13T04:40:20.957Z,-0.31
2022-11-13T04:41:20.988Z,-0.29
2022-11-13T04:42:21.018Z,-0.28
2022-11-13T04:43:21.033Z,-0.27
2022-11-13T04:44:21.011Z,-0.26
2022-11-13T04:45:21.021Z,-0.25
2022-11-13T04:46:21.043Z,-0.23
2022-11-13T04:47:21.048Z,-0.26
2022-11-13T04:48:21.074Z,-0.26
2022-11-13T04:49:21.064Z,-0.27
2022-11-13T04:50:21.083Z,-0.29
2022-11-13T04:51:21.094Z,-0.31
2022-11-13T04:52:21.106Z,-0.33
2022-11-13T04:53:21.123Z,-0.33
2022-11-13T04:54:25.788Z,-0.35
2022-11-13T04:55:21.123Z,-0.37
2022-11-13T04:56:21.127Z,-0.39
2022-11-13T04:57:21.138Z,-0.39
2022-11-13T04:58:21.141Z,-0.41
2022-11-13T04:59:21.131Z,-0.41
2022-11-13T05:00:21.121Z,-0.41
2022-11-13T05:01:21.191Z,-0.42
2022-11-13T05:02:21.117Z,-0.41
2022-11-13T05:03:21.147Z,-0.39
2022-11-13T05:04:21.124Z,-0.41
2022-11-13T05:05:21.141Z,-0.41
2022-11-13T05:06:21.136Z,-0.41
2022-11-13T05:07:21.205Z,-0.42
2022-11-13T05:08:21.141Z,-0.41
2022-11-13T05:09:21.133Z,-0.41
2022-11-13T05:10:21.145Z,-0.40
2022-11-13T05:11:21.126Z,-0.41
2022-11-13T05:12:21.129Z,-0.42
2022-11-13T05:13:21.136Z,-0.43
2022-11-13T05:14:21.157Z,-0.45
2022-11-13T05:15:21.153Z,-0.44
2022-11-13T05:16:21.128Z,-0.45
2022-11-13T05:17:21.146Z,-0.46
2022-11-13T05:18:21.154Z,-0.46
2022-11-13T05:19:21.156Z,-0.47
2022-11-13T05:20:21.149Z,-0.48
2022-11-13T05:21:21.152Z,-0.47
2022-11-13T05:22:21.176Z,-0.49
2022-11-13T05:23:21.160Z,-0.51
2022-11-13T05:24:21.164Z,-0.51
2022-11-13T05:25:21.157Z,-0.52
2022-11-13T05:26:21.144Z,-0.52
2022-11-13T05:27:21.169Z,-0.54
2022-11-13T05:28:21.148Z,-0.53
2022-11-13T05:29:21.153Z,-0.55
2022-11-13T05:30:21.180Z,-0.57
2022-11-13T05:31:21.145Z,-0.56
2022-11-13T05:32:21.153Z,-0.57
2022-11-13T05:33:21.168Z,-0.57
2022-11-13T05:34:21.155Z,-0.57
2022-11-13T05:35:21.161Z,-0.57
2022-11-13T05:36:21.158Z,-0.58
2022-11-13T05:37:21.163Z,-0.60
2022-11-13T05:38:21.162Z,-0.61
2022-11-13T05:39:21.164Z,-0.63
2022-11-13T05:40:21.189Z,-0.64
2022-11-13T05:41:21.195Z,-0.65
2022-11-13T05:42:21.165Z,-0.64
2022-11-13T05:43:21.166Z,-0.63
2022-11-13T05:44:21.156Z,-0.61
2022-11-13T05:45:21.171Z,-0.61
2022-11-13T05:46:21.173Z,-0.59
2022-11-13T05:47:21.169Z,-0.60
2022-11-13T05:48:21.173Z,-0.59
2022-11-13T05:49:21.173Z,-0.58
2022-11-13T05:50:21.165Z,-0.59
2022-11-13T05:51:21.176Z,-0.57
2022-11-13T05:52:21.178Z,-0.57
2022-11-13T05:53:21.207Z,-0.58
2022-11-13T05:54:21.188Z,-0.59
2022-11-13T05:55:23.464Z,-0.60
2022-11-13T05:56:21.174Z,-0.61
2022-11-13T05:57:21.183Z,-0.63
2022-11-13T05:58:21.181Z,-0.64
2022-11-13T05:59:21.184Z,-0.65
2022-11-13T06:00:21.187Z,-0.66
2022-11-13T06:01:21.186Z,-0.68
2022-11-13T06:02:21.236Z,-0.67
2022-11-13T06:03:21.178Z,-0.69
2022-11-13T06:04:21.196Z,-0.69
2022-11-13T06:05:21.225Z,-0.70
2022-11-13T06:06:21.212Z,-0.71
2022-11-13T06:07:21.258Z,-0.73
2022-11-13T06:08:21.244Z,-0.74
2022-11-13T06:09:21.269Z,-0.75
2022-11-13T06:10:21.255Z,-0.77
2022-11-13T06:11:21.275Z,-0.78
2022-11-13T06:12:21.281Z,-0.80
2022-11-13T06:13:21.312Z,-0.80
2022-11-13T06:14:21.352Z,-0.80
2022-11-13T06:15:21.353Z,-0.82
2022-11-13T06:16:21.446Z,-0.80
2022-11-13T06:17:21.335Z,-0.83
2022-11-13T06:18:26.175Z,-0.82
2022-11-13T06:19:21.349Z,-0.80
2022-11-13T06:20:21.384Z,-0.80
2022-11-13T06:21:21.368Z,-0.80
2022-11-13T06:22:21.353Z,-0.80
2022-11-13T06:23:21.357Z,-0.82
2022-11-13T06:24:21.339Z,-0.82
2022-11-13T06:25:21.368Z,-0.82
2022-11-13T06:26:21.368Z,-0.82
2022-11-13T06:27:21.362Z,-0.81
2022-11-13T06:28:21.366Z,-0.83
2022-11-13T06:29:21.368Z,-0.82
2022-11-13T06:30:21.360Z,-0.82
2022-11-13T06:31:21.378Z,-0.81
2022-11-13T06:32:21.366Z,-0.80
2022-11-13T06:33:21.380Z,-0.79
2022-11-13T06:34:21.383Z,-0.79
2022-11-13T06:35:21.371Z,-0.79
2022-11-13T06:36:21.372Z,-0.80
2022-11-13T06:37:21.390Z,-0.80
2022-11-13T06:38:21.379Z,-0.79
2022-11-13T06:39:21.418Z,-0.79
2022-11-13T06:40:21.363Z,-0.77
2022-11-13T06:41:21.357Z,-0.78
2022-11-13T06:42:21.387Z,-0.76
2022-11-13T06:43:21.389Z,-0.76
2022-11-13T06:44:21.375Z,-0.77
2022-11-13T06:45:21.382Z,-0.76
2022-11-13T06:46:21.384Z,-0.77
2022-11-13T06:47:21.388Z,-0.77
2022-11-13T06:48:21.385Z,-0.79
2022-11-13T06:49:21.407Z,-0.80
2022-11-13T06:50:21.392Z,-0.78
2022-11-13T06:51:21.380Z,-0.78
2022-11-13T06:52:21.379Z,-0.77
2022-11-13T06:53:21.399Z,-0.77
2022-11-13T06:54:21.395Z,-0.77
2022-11-13T06:55:21.387Z,-0.77
2022-11-13T06:56:21.385Z,-0.78
2022-11-13T06:57:21.392Z,-0.77
2022-11-13T06:58:21.391Z,-0.78
2022-11-13T06:59:21.397Z,-0.78
2022-11-13T07:00:21.385Z,-0.76
2022-11-13T07:01:21.444Z,-0.76
2022-11-13T07:02:21.390Z,-0.75
2022-11-13T07:03:21.397Z,-0.75
2022-11-13T07:04:21.402Z,-0.74
2022-11-13T07:05:21.401Z,-0.75
2022-11-13T07:06:21.403Z,-0.75
2022-11-13T07:07:21.430Z,-0.75
2022-11-13T07:08:21.415Z,-0.76
2022-11-13T07:09:21.415Z,-0.76
2022-11-13T07:10:21.403Z,-0.75
2022-11-13T07:11:21.404Z,-0.76
2022-11-13T07:12:21.398Z,-0.75
2022-11-13T07:13:21.387Z,-0.75
2022-11-13T07:14:21.410Z,-0.73
2022-11-13T07:15:21.401Z,-0.72
2022-11-13T07:16:21.410Z,-0.72
2022-11-13T07:17:21.406Z,-0.70
2022-11-13T07:18:25.025Z,-0.69
2022-11-13T07:19:21.407Z,-0.69
2022-11-13T07:20:21.416Z,-0.67
2022-11-13T07:21:21.407Z,-0.65
2022-11-13T07:22:21.396Z,-0.63
2022-11-13T07:23:21.416Z,-0.61
2022-11-13T07:24:21.431Z,-0.60
2022-11-13T07:25:21.422Z,-0.57
2022-11-13T07:26:21.418Z,-0.55
2022-11-13T07:27:21.414Z,-0.54
2022-11-13T07:28:21.414Z,-0.51
2022-11-13T07:29:21.421Z,-0.50
2022-11-13T07:30:21.406Z,-0.49
2022-11-13T07:31:21.410Z,-0.47
2022-11-13T07:32:21.401Z,-0.47
2022-11-13T07:33:21.432Z,-0.45
2022-11-13T07:34:21.414Z,-0.44
2022-11-13T07:35:21.435Z,-0.42
2022-11-13T07:36:21.411Z,-0.42
2022-11-13T07:37:21.428Z,-0.40
2022-11-13T07:38:21.408Z,-0.39
2022-11-13T07:39:21.429Z,-0.37
2022-11-13T07:40:21.420Z,-0.37
2022-11-13T07:41:21.415Z,-0.36
2022-11-13T07:42:21.427Z,-0.35
2022-11-13T07:43:21.423Z,-0.34
2022-11-13T07:44:47.708Z,-0.35
2022-11-13T07:45:21.440Z,-0.32
2022-11-13T07:46:21.434Z,-0.31
2022-11-13T07:47:21.450Z,-0.29
2022-11-13T07:48:21.427Z,-0.27
2022-11-13T07:49:21.438Z,-0.25
2022-11-13T07:50:21.424Z,-0.24
2022-11-13T07:51:21.431Z,-0.22
2022-11-13T07:52:21.460Z,-0.22
2022-11-13T07:53:21.432Z,-0.20
2022-11-13T07:54:21.431Z,-0.18
2022-11-13T07:55:21.444Z,-0.18
2022-11-13T07:56:23.165Z,-0.15
2022-11-13T07:57:21.474Z,-0.12
2022-11-13T07:58:21.441Z,-0.10
2022-11-13T07:59:21.448Z,-0.09
2022-11-13T08:00:21.453Z,-0.05
2022-11-13T08:01:21.512Z,-0.04
2022-11-13T08:02:26.345Z,-0.03
2022-11-13T08:03:21.449Z,-0.02
2022-11-13T08:04:21.432Z,-0.01
2022-11-13T08:05:21.439Z,-0.01
2022-11-13T08:06:21.441Z,0.02
2022-11-13T08:07:21.543Z,0.05
2022-11-13T08:08:21.440Z,0.06
2022-11-13T08:09:21.472Z,0.09
2022-11-13T08:10:21.445Z,0.10
2022-11-13T08:11:21.460Z,0.11
2022-11-13T08:12:21.466Z,0.12
2022-11-13T08:13:21.444Z,0.13
2022-11-13T08:14:21.459Z,0.13
2022-11-13T08:15:21.467Z,0.14
2022-11-13T08:16:21.459Z,0.16
2022-11-13T08:17:21.451Z,0.16
2022-11-13T08:18:21.433Z,0.18
2022-11-13T08:19:21.466Z,0.19
2022-11-13T08:20:21.458Z,0.19
2022-11-13T08:21:21.499Z,0.20
2022-11-13T08:22:21.459Z,0.23
2022-11-13T08:23:21.457Z,0.25
2022-11-13T08:24:21.464Z,0.30
2022-11-13T08:25:21.467Z,0.34
2022-11-13T08:26:21.481Z,0.39
2022-11-13T08:27:21.465Z,0.43
2022-11-13T08:28:21.498Z,0.45
2022-11-13T08:29:21.463Z,0.48
2022-11-13T08:30:21.474Z,0.50
2022-11-13T08:31:21.469Z,0.54
2022-11-13T08:32:21.473Z,0.58
2022-11-13T08:33:21.506Z,0.60
2022-11-13T08:34:21.475Z,0.61
2022-11-13T08:35:26.562Z,0.63
2022-11-13T08:36:21.486Z,0.66
2022-11-13T08:37:21.469Z,0.66
2022-11-13T08:38:21.479Z,0.68
2022-11-13T08:39:21.464Z,0.69
2022-11-13T08:40:21.509Z,0.74
2022-11-13T08:41:21.473Z,0.80
2022-11-13T08:42:21.468Z,0.86
2022-11-13T08:43:21.479Z,0.92
2022-11-13T08:44:21.480Z,0.96
2022-11-13T08:45:21.519Z,0.99
2022-11-13T08:46:21.492Z,1.02
2022-11-13T08:47:25.540Z,1.07
2022-11-13T08:48:21.475Z,1.09
2022-11-13T08:49:21.479Z,1.11
2022-11-13T08:50:21.499Z,1.12
2022-11-13T08:51:21.490Z,1.14
2022-11-13T08:52:21.487Z,1.15
2022-11-13T08:53:21.494Z,1.17
2022-11-13T08:54:21.484Z,1.20
2022-11-13T08:55:21.492Z,1.24
2022-11-13T08:56:21.505Z,1.27
2022-11-13T08:57:21.497Z,1.30
2022-11-13T08:58:21.495Z,1.31
2022-11-13T08:59:21.495Z,1.33
2022-11-13T09:00:21.480Z,1.36
2022-11-13T09:01:21.507Z,1.38
2022-11-13T09:02:21.523Z,1.41
2022-11-13T09:03:21.672Z,1.46
2022-11-13T09:04:21.519Z,1.50
2022-11-13T09:05:21.497Z,1.52
2022-11-13T09:06:21.512Z,1.55
2022-11-13T09:07:27.019Z,1.60
2022-11-13T09:08:21.512Z,1.62
2022-11-13T09:09:21.512Z,1.65
2022-11-13T09:10:21.492Z,1.68
2022-11-13T09:11:21.507Z,1.72
2022-11-13T09:12:21.503Z,1.76
2022-11-13T09:13:21.517Z,1.81
2022-11-13T09:14:21.491Z,1.85
2022-11-13T09:15:24.427Z,1.88
2022-11-13T09:16:21.521Z,1.95
2022-11-13T09:17:21.527Z,2.00
2022-11-13T09:18:21.523Z,2.07
2022-11-13T09:19:21.529Z,2.10
2022-11-13T09:20:22.914Z,2.16
2022-11-13T09:21:21.513Z,2.20
2022-11-13T09:22:21.535Z,2.25
2022-11-13T09:23:21.522Z,2.28
2022-11-13T09:24:21.502Z,2.30
2022-11-13T09:25:21.558Z,2.35
2022-11-13T09:26:21.511Z,2.41
2022-11-13T09:27:21.532Z,2.51
2022-11-13T09:28:21.525Z,2.58
2022-11-13T09:29:21.534Z,2.64
2022-11-13T09:30:21.542Z,2.71
2022-11-13T09:31:21.505Z,2.78
2022-11-13T09:32:21.512Z,2.82
2022-11-13T09:33:21.536Z,2.86
2022-11-13T09:34:21.505Z,2.91
2022-11-13T09:35:21.551Z,2.95
2022-11-13T09:36:21.549Z,3.04
2022-11-13T09:37:21.518Z,3.17
2022-11-13T09:38:21.537Z,3.31
2022-11-13T09:39:21.657Z,3.44
2022-11-13T09:40:21.614Z,3.57
2022-11-13T09:41:21.522Z,3.65
2022-11-13T09:42:21.531Z,3.71
2022-11-13T09:43:21.557Z,3.73
2022-11-13T09:44:21.547Z,3.75
2022-11-13T09:45:21.549Z,3.75
2022-11-13T09:46:21.545Z,3.77
2022-11-13T09:47:21.546Z,3.77
2022-11-13T09:48:21.554Z,3.79
2022-11-13T09:49:21.544Z,3.81
2022-11-13T09:50:21.570Z,3.84
2022-11-13T09:51:21.535Z,3.87
2022-11-13T09:52:21.554Z,3.89
2022-11-13T09:53:21.551Z,3.92
2022-11-13T09:54:21.558Z,3.95
2022-11-13T09:55:21.547Z,4.01
2022-11-13T09:56:21.540Z,4.10
2022-11-13T09:57:25.864Z,4.15
2022-11-13T09:58:21.551Z,4.18
2022-11-13T09:59:21.559Z,4.18
2022-11-13T10:00:21.645Z,4.17
2022-11-13T10:01:21.655Z,4.18
2022-11-13T10:02:21.554Z,4.18
2022-11-13T10:03:46.336Z,4.21
2022-11-13T10:04:21.578Z,4.25
2022-11-13T10:05:21.554Z,4.27
2022-11-13T10:06:21.548Z,4.29
2022-11-13T10:07:21.583Z,4.33
2022-11-13T10:08:21.593Z,4.38
2022-11-13T10:09:21.593Z,4.40
2022-11-13T10:10:21.664Z,4.42
2022-11-13T10:11:21.556Z,4.45
2022-11-13T10:12:21.570Z,4.49
2022-11-13T10:13:21.531Z,4.51
2022-11-13T10:14:21.583Z,4.53
2022-11-13T10:15:21.544Z,4.61
2022-11-13T10:16:21.568Z,4.69
2022-11-13T10:17:21.546Z,4.73
2022-11-13T10:18:21.584Z,4.78
2022-11-13T10:19:21.604Z,4.81
2022-11-13T10:20:21.581Z,4.83
2022-11-13T10:21:21.579Z,4.86
2022-11-13T10:22:32.947Z,4.89
2022-11-13T10:23:21.557Z,4.96
2022-11-13T10:24:21.574Z,5.02
2022-11-13T10:25:21.590Z,5.05
2022-11-13T10:26:21.561Z,5.07
2022-11-13T10:27:21.569Z,5.09
2022-11-13T10:28:48.812Z,5.12
2022-11-13T10:29:21.607Z,5.14
2022-11-13T10:30:21.608Z,5.15
2022-11-13T10:31:21.571Z,5.16
2022-11-13T10:32:21.560Z,5.15
2022-11-13T10:33:21.576Z,5.17
2022-11-13T10:34:21.600Z,5.20
2022-11-13T10:35:21.574Z,5.26
2022-11-13T10:36:21.601Z,5.28
2022-11-13T10:37:21.584Z,5.29
2022-11-13T10:38:21.583Z,5.31
2022-11-13T10:39:21.596Z,5.32
2022-11-13T10:40:21.593Z,5.35
2022-11-13T10:41:21.565Z,5.40
2022-11-13T10:42:21.579Z,5.42
2022-11-13T10:43:21.578Z,5.46
2022-11-13T10:44:21.583Z,5.50
2022-11-13T10:45:21.621Z,5.55
2022-11-13T10:46:21.587Z,5.63
2022-11-13T10:47:42.516Z,5.71
2022-11-13T10:48:21.617Z,5.80
2022-11-13T10:49:21.588Z,5.87
2022-11-13T10:50:21.601Z,5.92
2022-11-13T10:51:21.605Z,5.95
2022-11-13T10:52:21.592Z,6.00
2022-11-13T10:53:21.616Z,6.10
2022-11-13T10:54:21.608Z,6.19
2022-11-13T10:55:21.585Z,6.27
2022-11-13T10:56:21.616Z,6.38
2022-11-13T10:57:21.595Z,6.49
2022-11-13T10:58:21.616Z,6.59
2022-11-13T10:59:21.585Z,6.67
2022-11-13T11:00:21.594Z,6.72
2022-11-13T11:01:21.786Z,6.80
2022-11-13T11:02:21.599Z,6.86
2022-11-13T11:03:21.603Z,6.91
2022-11-13T11:04:21.614Z,6.92
2022-11-13T11:05:21.611Z,6.90
2022-11-13T11:06:21.610Z,6.93
2022-11-13T11:07:21.886Z,6.94
2022-11-13T11:08:21.604Z,6.94
2022-11-13T11:09:21.641Z,6.97
2022-11-13T11:10:21.594Z,7.04
2022-11-13T11:11:21.610Z,7.10
2022-11-13T11:12:27.231Z,7.15
2022-11-13T11:13:21.596Z,7.21
2022-11-13T11:14:21.624Z,7.30
2022-11-13T11:15:21.619Z,7.39
2022-11-13T11:16:21.631Z,7.47
2022-11-13T11:17:21.636Z,7.53
2022-11-13T11:18:21.596Z,7.60
2022-11-13T11:19:21.612Z,7.65
2022-11-13T11:20:21.610Z,7.69
2022-11-13T11:21:21.600Z,7.78
2022-11-13T11:22:21.626Z,7.85
2022-11-13T11:23:21.650Z,7.89
2022-11-13T11:24:21.634Z,7.94
2022-11-13T11:25:21.613Z,7.94
2022-11-13T11:26:21.618Z,7.95
2022-11-13T11:27:21.630Z,7.95
2022-11-13T11:28:21.622Z,7.95
2022-11-13T11:29:21.631Z,7.98
2022-11-13T11:30:21.615Z,8.00
2022-11-13T11:31:21.627Z,8.03
2022-11-13T11:32:21.635Z,8.07
2022-11-13T11:33:21.611Z,8.14
2022-11-13T11:34:21.634Z,8.23
2022-11-13T11:35:21.614Z,8.35
2022-11-13T11:36:21.632Z,8.50
2022-11-13T11:37:21.631Z,8.57
2022-11-13T11:38:21.657Z,8.62
2022-11-13T11:39:21.630Z,8.63
2022-11-13T11:40:21.641Z,8.63
2022-11-13T11:41:21.643Z,8.63
2022-11-13T11:42:21.657Z,8.60
2022-11-13T11:43:21.634Z,8.58
2022-11-13T11:44:21.635Z,8.61
2022-11-13T11:45:21.631Z,8.72
2022-11-13T11:46:21.668Z,8.83
2022-11-13T11:47:21.658Z,8.91
2022-11-13T11:48:21.643Z,8.98
2022-11-13T11:49:21.632Z,9.09
2022-11-13T11:50:21.670Z,9.26
2022-11-13T11:51:21.658Z,9.36
2022-11-13T11:52:21.643Z,9.49
2022-11-13T11:53:21.636Z,9.67
2022-11-13T11:54:21.641Z,9.83
2022-11-13T11:55:21.659Z,9.90
2022-11-13T11:56:21.658Z,9.97
2022-11-13T11:57:21.637Z,10.04
2022-11-13T11:58:21.646Z,10.15
2022-11-13T11:59:21.647Z,10.22
2022-11-13T12:00:21.664Z,10.28
2022-11-13T12:01:21.658Z,10.31
2022-11-13T12:02:21.661Z,10.37
2022-11-13T12:03:21.646Z,10.41
2022-11-13T12:04:21.695Z,10.41
2022-11-13T12:05:21.795Z,10.41
2022-11-13T12:06:21.658Z,10.41
2022-11-13T12:07:21.680Z,10.42
2022-11-13T12:08:21.676Z,10.43
2022-11-13T12:09:21.666Z,10.42
2022-11-13T12:10:21.665Z,10.44
2022-11-13T12:11:21.701Z,10.45
2022-11-13T12:12:21.658Z,10.46
2022-11-13T12:13:21.663Z,10.47
2022-11-13T12:14:21.658Z,10.50
2022-11-13T12:15:21.673Z,10.58
2022-11-13T12:16:25.125Z,10.63
2022-11-13T12:17:21.672Z,10.69
2022-11-13T12:18:21.667Z,10.78
2022-11-13T12:19:21.670Z,10.86
2022-11-13T12:20:21.706Z,10.93
2022-11-13T12:21:21.682Z,11.00
2022-11-13T12:22:21.686Z,11.06
2022-11-13T12:23:21.675Z,11.17
2022-11-13T12:24:21.670Z,11.28
2022-11-13T12:25:21.676Z,11.45
2022-11-13T12:26:21.694Z,11.71
2022-11-13T12:27:21.686Z,12.03
2022-11-13T12:28:21.684Z,12.35
2022-11-13T12:29:21.674Z,12.67
2022-11-13T12:30:21.691Z,12.97
2022-11-13T12:31:21.691Z,13.28
2022-11-13T12:32:21.679Z,13.59
2022-11-13T12:33:21.709Z,13.93
2022-11-13T12:34:21.689Z,14.26
2022-11-13T12:35:21.684Z,14.63
2022-11-13T12:36:21.688Z,15.00
2022-11-13T12:37:21.693Z,15.33
2022-11-13T12:38:21.712Z,15.67
2022-11-13T12:39:21.704Z,15.98
2022-11-13T12:40:21.707Z,16.27
2022-11-13T12:41:21.686Z,16.48
2022-11-13T12:42:21.701Z,16.37
2022-11-13T12:43:21.700Z,16.31
2022-11-13T12:44:21.713Z,16.31
2022-11-13T12:45:21.708Z,16.55
2022-11-13T12:46:21.709Z,16.95
2022-11-13T12:47:21.713Z,17.37
2022-11-13T12:48:21.693Z,17.63
2022-11-13T12:49:21.719Z,17.63
2022-11-13T12:50:21.711Z,17.57
2022-11-13T12:51:21.715Z,17.53
2022-11-13T12:52:21.736Z,17.36
2022-11-13T12:53:21.733Z,17.09
2022-11-13T12:54:21.707Z,16.77
2022-11-13T12:55:21.702Z,16.28
2022-11-13T12:56:21.714Z,15.96
2022-11-13T12:57:24.425Z,15.93
2022-11-13T12:58:21.727Z,16.07
2022-11-13T12:59:30.845Z,16.25
2022-11-13T13:00:21.716Z,16.48
2022-11-13T13:01:21.756Z,16.78
2022-11-13T13:02:21.727Z,17.17
2022-11-13T13:03:21.718Z,17.59
2022-11-13T13:04:21.717Z,18.01
2022-11-13T13:05:21.714Z,18.34
2022-11-13T13:06:21.712Z,18.65
2022-11-13T13:07:21.858Z,18.78
2022-11-13T13:08:21.724Z,18.70